KWVL/WVL METAR and TAF weather

Enter ICAO airport designator
Station Type Date Time Source
KWVL METAR 2020/04/06 10:56 UTC NOAA

KWVL 061056Z AUTO 32006KT 10SM CLR 03/M02 A2993 RMK AO2 SLP166 T00281022


Station Type Date Time Source
KWVL Decoded METAR 2020/04/06 10:56 UTC NOAA

Waterville, Waterville Robert LaFleur Airport, ME, United States (KWVL) 44-32N 069-41W
Apr 06, 2020 - 06:56 AM EDT / 2020.04.06 1056 UTC
Wind: from the NW (320 degrees) at 7 MPH (6 KT):0
Visibility: 10 mile(s):0
Sky conditions: clear
Temperature: 37.0 F (2.8 C)
Dew Point: 28.0 F (-2.2 C)
Relative Humidity: 69%
Pressure (altimeter): 29.93 in. Hg (1013 hPa)
ob: KWVL 061056Z AUTO 32006KT 10SM CLR 03/M02 A2993 RMK AO2 SLP166 T00281022
cycle: 11

Station Type Date Time Source
KWVL TAF UTC NOAA

Error!

Example: see airport list